createdAt,value
2018-12-07T00:00:38.871Z,0.00
2018-12-07T00:01:39.302Z,0.00
2018-12-07T00:02:39.752Z,0.00
2018-12-07T00:03:40.229Z,0.00
2018-12-07T00:04:40.644Z,0.00
2018-12-07T00:05:40.951Z,0.00
2018-12-07T00:06:41.417Z,0.00
2018-12-07T00:07:42.202Z,0.00
2018-12-07T00:08:42.636Z,0.00
2018-12-07T00:09:43.116Z,0.00
2018-12-07T00:10:43.748Z,0.00
2018-12-07T00:11:44.379Z,0.00
2018-12-07T00:12:44.923Z,0.00
2018-12-07T00:13:45.263Z,0.00
2018-12-07T00:14:45.777Z,0.00
2018-12-07T00:15:46.499Z,0.00
2018-12-07T00:16:47.324Z,0.00
2018-12-07T00:17:47.872Z,0.00
2018-12-07T00:18:48.331Z,0.00
2018-12-07T00:19:48.989Z,0.00
2018-12-07T00:20:49.441Z,0.00
2018-12-07T00:21:49.911Z,0.00
2018-12-07T00:22:50.240Z,0.00
2018-12-07T00:23:50.619Z,0.00
2018-12-07T00:24:50.989Z,0.00
2018-12-07T00:25:01.047Z,0.00
2018-12-07T00:26:01.561Z,0.00
2018-12-07T00:27:02.395Z,0.00
2018-12-07T00:28:02.816Z,0.00
2018-12-07T00:29:03.394Z,0.00
2018-12-07T00:30:03.935Z,0.00
2018-12-07T00:31:04.371Z,0.00
2018-12-07T00:32:04.928Z,0.00
2018-12-07T00:33:05.618Z,0.00
2018-12-07T00:34:06.072Z,0.00
2018-12-07T00:35:06.633Z,0.00
2018-12-07T00:36:07.074Z,0.00
2018-12-07T00:37:07.470Z,0.00
2018-12-07T00:38:06.821Z,0.00
2018-12-07T00:39:08.242Z,0.00
2018-12-07T00:40:08.842Z,0.00
2018-12-07T00:41:09.308Z,0.00
2018-12-07T00:42:10.141Z,0.00
2018-12-07T00:43:10.523Z,0.00
2018-12-07T00:44:11.227Z,0.00
2018-12-07T00:45:11.782Z,0.00
2018-12-07T00:46:12.136Z,0.00
2018-12-07T00:47:12.506Z,0.00
2018-12-07T00:48:12.952Z,0.00
2018-12-07T00:49:13.225Z,0.00
2018-12-07T00:50:14.089Z,0.00
2018-12-07T00:51:14.864Z,0.00
2018-12-07T00:52:15.159Z,0.00
2018-12-07T00:53:15.484Z,0.00
2018-12-07T00:54:15.775Z,0.00
2018-12-07T00:55:16.205Z,0.00
2018-12-07T00:56:16.673Z,0.00
2018-12-07T00:57:17.053Z,0.00
2018-12-07T00:58:17.533Z,0.00
2018-12-07T00:59:17.898Z,0.00
2018-12-07T01:00:18.438Z,0.00
2018-12-07T01:01:18.867Z,0.00
2018-12-07T01:02:19.168Z,0.00
2018-12-07T01:03:19.468Z,0.00
2018-12-07T01:04:19.848Z,0.00
2018-12-07T01:05:20.398Z,0.00
2018-12-07T01:06:20.926Z,0.00
2018-12-07T01:07:21.252Z,0.00
2018-12-07T01:08:21.552Z,0.00
2018-12-07T01:09:21.858Z,0.00
2018-12-07T01:10:22.217Z,0.00
2018-12-07T01:10:30.635Z,0.00
2018-12-07T01:11:31.996Z,0.00
2018-12-07T01:12:32.398Z,0.00
2018-12-07T01:13:33.033Z,0.00
2018-12-07T01:14:33.494Z,0.00
2018-12-07T01:15:33.886Z,0.00
2018-12-07T01:16:34.278Z,0.00
2018-12-07T01:17:34.657Z,0.00
2018-12-07T01:18:35.091Z,0.00
2018-12-07T01:19:35.650Z,0.00
2018-12-07T01:20:36.027Z,0.00
2018-12-07T01:21:36.490Z,0.00
2018-12-07T01:22:36.777Z,0.00
2018-12-07T01:23:37.407Z,0.00
2018-12-07T01:24:37.765Z,0.00
2018-12-07T01:25:38.241Z,0.00
2018-12-07T01:26:39.107Z,0.00
2018-12-07T01:27:39.505Z,0.00
2018-12-07T01:28:39.871Z,0.00
2018-12-07T01:29:40.500Z,0.00
2018-12-07T01:30:39.710Z,0.00
2018-12-07T01:31:41.559Z,0.00
2018-12-07T01:32:42.963Z,0.00
2018-12-07T01:33:42.761Z,0.00
2018-12-07T01:34:43.076Z,0.00
2018-12-07T01:35:43.575Z,0.00
2018-12-07T01:36:43.931Z,0.00
2018-12-07T01:37:44.163Z,0.00
2018-12-07T01:38:44.741Z,0.00
2018-12-07T01:39:45.229Z,0.00
2018-12-07T01:40:46.088Z,0.00
2018-12-07T01:41:46.571Z,0.00
2018-12-07T01:42:46.859Z,0.00
2018-12-07T01:43:47.208Z,0.00
2018-12-07T01:44:47.626Z,0.00
2018-12-07T01:45:47.855Z,0.00
2018-12-07T01:46:48.220Z,0.00
2018-12-07T01:47:48.673Z,0.00
2018-12-07T01:48:49.028Z,0.00
2018-12-07T01:49:49.470Z,0.00
2018-12-07T01:50:49.900Z,0.00
2018-12-07T01:51:49.285Z,0.00
2018-12-07T01:52:51.014Z,0.00
2018-12-07T01:53:51.410Z,0.00
2018-12-07T01:54:00.407Z,0.00
2018-12-07T01:55:00.948Z,0.00
2018-12-07T01:56:01.295Z,0.00
2018-12-07T01:57:01.698Z,0.00
2018-12-07T01:58:02.117Z,0.00
2018-12-07T01:59:02.541Z,0.00
2018-12-07T02:00:02.910Z,0.00
2018-12-07T02:01:03.314Z,0.00
2018-12-07T02:02:03.823Z,0.00
2018-12-07T02:03:04.131Z,0.00
2018-12-07T02:04:04.766Z,0.00
2018-12-07T02:05:05.084Z,0.00
2018-12-07T02:06:08.380Z,0.00
2018-12-07T02:07:05.764Z,0.00
2018-12-07T02:08:06.088Z,0.00
2018-12-07T02:09:06.393Z,0.00
2018-12-07T02:10:06.902Z,0.00
2018-12-07T02:11:07.458Z,0.00
2018-12-07T02:12:07.833Z,0.00
2018-12-07T02:13:08.211Z,0.00
2018-12-07T02:14:08.944Z,0.00
2018-12-07T02:15:09.392Z,0.00
2018-12-07T02:16:09.792Z,0.00
2018-12-07T02:17:10.185Z,0.00
2018-12-07T02:18:10.592Z,0.00
2018-12-07T02:19:11.036Z,0.00
2018-12-07T02:20:11.326Z,0.00
2018-12-07T02:21:12.108Z,0.00
2018-12-07T02:22:12.629Z,0.00
2018-12-07T02:23:13.005Z,0.00
2018-12-07T02:24:13.492Z,0.00
2018-12-07T02:25:14.147Z,0.00
2018-12-07T02:26:14.870Z,0.00
2018-12-07T02:27:15.312Z,0.00
2018-12-07T02:28:15.924Z,0.00
2018-12-07T02:29:16.283Z,0.00
2018-12-07T02:30:15.693Z,0.00
2018-12-07T02:31:17.117Z,0.00
2018-12-07T02:32:17.866Z,0.00
2018-12-07T02:33:18.335Z,0.00
2018-12-07T02:34:18.978Z,0.00
2018-12-07T02:35:19.492Z,0.00
2018-12-07T02:36:20.164Z,0.00
2018-12-07T02:37:20.527Z,0.00
2018-12-07T02:38:20.942Z,0.00
2018-12-07T02:39:21.429Z,0.00
2018-12-07T02:39:29.710Z,0.00
2018-12-07T02:40:34.062Z,0.00
2018-12-07T02:41:31.676Z,0.00
2018-12-07T02:42:31.962Z,0.00
2018-12-07T02:43:32.442Z,0.00
2018-12-07T02:44:32.794Z,0.00
2018-12-07T02:45:33.444Z,0.00
2018-12-07T02:46:33.967Z,0.00
2018-12-07T02:47:34.187Z,0.00
2018-12-07T02:48:34.537Z,0.00
2018-12-07T02:49:34.892Z,0.00
2018-12-07T02:50:35.191Z,0.00
2018-12-07T02:51:35.659Z,0.00
2018-12-07T02:52:35.993Z,0.00
2018-12-07T02:53:36.379Z,0.00
2018-12-07T02:54:36.669Z,0.00
2018-12-07T02:55:36.910Z,0.00
2018-12-07T02:56:37.312Z,0.00
2018-12-07T02:57:37.668Z,0.00
2018-12-07T02:58:37.914Z,0.00
2018-12-07T02:59:38.260Z,0.00
2018-12-07T03:00:38.648Z,0.00
2018-12-07T03:01:37.917Z,0.00
2018-12-07T03:02:39.276Z,0.00
2018-12-07T03:03:39.574Z,0.00
2018-12-07T03:04:39.938Z,0.00
2018-12-07T03:05:40.234Z,0.00
2018-12-07T03:06:40.602Z,0.00
2018-12-07T03:07:40.990Z,0.00
2018-12-07T03:08:41.261Z,0.00
2018-12-07T03:09:41.559Z,0.00
2018-12-07T03:10:42.040Z,0.00
2018-12-07T03:11:42.455Z,0.00
2018-12-07T03:12:42.944Z,0.00
2018-12-07T03:13:43.177Z,0.00
2018-12-07T03:14:42.516Z,0.00
2018-12-07T03:15:43.821Z,0.00
2018-12-07T03:16:44.100Z,0.00
2018-12-07T03:17:44.480Z,0.00
2018-12-07T03:18:44.756Z,0.00
2018-12-07T03:19:45.149Z,0.00
2018-12-07T03:20:44.664Z,0.00
2018-12-07T03:21:46.271Z,0.00
2018-12-07T03:22:46.930Z,0.00
2018-12-07T03:23:47.214Z,0.00
2018-12-07T03:24:47.507Z,0.00
2018-12-07T03:25:47.944Z,0.00
2018-12-07T03:25:56.473Z,0.00
2018-12-07T03:26:57.704Z,0.00
2018-12-07T03:27:58.131Z,0.00
2018-12-07T03:28:58.516Z,0.00
2018-12-07T03:29:58.921Z,0.00
2018-12-07T03:30:59.260Z,0.00
2018-12-07T03:32:00.631Z,0.00
2018-12-07T03:32:59.965Z,0.00
2018-12-07T03:34:00.304Z,0.00
2018-12-07T03:35:00.807Z,0.00
2018-12-07T03:36:01.354Z,0.00
2018-12-07T03:37:01.637Z,0.00
2018-12-07T03:38:01.875Z,0.00
2018-12-07T03:39:02.184Z,0.00
2018-12-07T03:40:02.487Z,0.00
2018-12-07T03:41:02.900Z,0.00
2018-12-07T03:42:03.186Z,0.00
2018-12-07T03:43:03.635Z,0.00
2018-12-07T03:44:04.337Z,0.00
2018-12-07T03:45:04.619Z,0.00
2018-12-07T03:46:04.976Z,0.00
2018-12-07T03:47:05.434Z,0.00
2018-12-07T03:48:05.730Z,0.00
2018-12-07T03:49:06.154Z,0.00
2018-12-07T03:50:06.469Z,0.00
2018-12-07T03:51:05.825Z,0.00
2018-12-07T03:52:07.236Z,0.00
2018-12-07T03:53:06.962Z,0.00
2018-12-07T03:54:08.495Z,0.00
2018-12-07T03:55:08.767Z,0.00
2018-12-07T03:56:09.122Z,0.00
2018-12-07T03:57:09.636Z,0.00
2018-12-07T03:58:09.688Z,0.00
2018-12-07T03:59:10.047Z,0.00
2018-12-07T04:00:10.540Z,0.00
2018-12-07T04:01:11.128Z,0.00
2018-12-07T04:02:11.736Z,0.00
2018-12-07T04:03:12.088Z,0.00
2018-12-07T04:04:12.384Z,0.00
2018-12-07T04:05:12.750Z,0.00
2018-12-07T04:06:13.081Z,0.00
2018-12-07T04:07:13.360Z,0.00
2018-12-07T04:08:13.722Z,0.00
2018-12-07T04:09:14.101Z,0.00
2018-12-07T04:10:14.488Z,0.00
2018-12-07T04:11:14.987Z,0.00
2018-12-07T04:11:24.072Z,0.00
2018-12-07T04:12:24.799Z,0.00
2018-12-07T04:13:25.622Z,0.00
2018-12-07T04:14:26.423Z,0.00
2018-12-07T04:15:26.862Z,0.00
2018-12-07T04:16:27.339Z,0.00
2018-12-07T04:17:27.941Z,0.00
2018-12-07T04:18:28.514Z,0.00
2018-12-07T04:19:28.854Z,0.00
2018-12-07T04:20:29.143Z,0.00
2018-12-07T04:21:29.546Z,0.00
2018-12-07T04:22:29.834Z,0.00
2018-12-07T04:23:30.115Z,0.00
2018-12-07T04:24:30.454Z,0.00
2018-12-07T04:25:30.975Z,0.00
2018-12-07T04:26:31.497Z,0.00
2018-12-07T04:27:31.768Z,0.00
2018-12-07T04:28:32.555Z,0.00
2018-12-07T04:29:32.978Z,0.00
2018-12-07T04:30:33.454Z,0.00
2018-12-07T04:31:32.652Z,0.00
2018-12-07T04:32:33.982Z,0.00
2018-12-07T04:33:34.306Z,0.00
2018-12-07T04:34:34.600Z,0.00
2018-12-07T04:35:34.863Z,0.00
2018-12-07T04:36:35.233Z,0.00
2018-12-07T04:37:34.455Z,0.00
2018-12-07T04:38:36.220Z,0.00
2018-12-07T04:39:36.729Z,0.00
2018-12-07T04:40:37.012Z,0.00
2018-12-07T04:41:37.289Z,0.00
2018-12-07T04:42:37.584Z,0.00
2018-12-07T04:43:37.921Z,0.00
2018-12-07T04:44:38.230Z,0.00
2018-12-07T04:45:38.651Z,0.00
2018-12-07T04:46:37.875Z,0.00
2018-12-07T04:47:39.303Z,0.00
2018-12-07T04:48:39.699Z,0.00
2018-12-07T04:49:39.989Z,0.00
2018-12-07T04:50:40.316Z,0.00
2018-12-07T04:51:40.632Z,0.00
2018-12-07T04:52:40.971Z,0.00
2018-12-07T04:53:41.446Z,0.00
2018-12-07T04:54:41.799Z,0.00
2018-12-07T04:54:50.144Z,0.00
2018-12-07T04:55:51.485Z,0.00
2018-12-07T04:56:51.793Z,0.00
2018-12-07T04:57:52.204Z,0.00
2018-12-07T04:58:52.733Z,0.00
2018-12-07T04:59:53.046Z,0.00
2018-12-07T05:00:53.394Z,0.00
2018-12-07T05:01:53.808Z,0.00
2018-12-07T05:02:54.324Z,0.00
2018-12-07T05:03:54.674Z,0.00
2018-12-07T05:04:55.331Z,0.00
2018-12-07T05:05:55.779Z,0.00
2018-12-07T05:06:56.325Z,0.00
2018-12-07T05:07:56.976Z,0.00
2018-12-07T05:08:57.453Z,0.00
2018-12-07T05:09:57.754Z,0.00
2018-12-07T05:10:58.269Z,0.00
2018-12-07T05:11:58.563Z,0.00
2018-12-07T05:12:58.942Z,0.00
2018-12-07T05:13:59.348Z,0.00
2018-12-07T05:14:59.658Z,0.00
2018-12-07T05:15:59.976Z,0.00
2018-12-07T05:17:00.354Z,0.00
2018-12-07T05:18:00.618Z,0.00
2018-12-07T05:19:01.312Z,0.00
2018-12-07T05:20:01.728Z,0.00
2018-12-07T05:21:02.000Z,0.00
2018-12-07T05:22:02.303Z,0.00
2018-12-07T05:23:02.604Z,0.00
2018-12-07T05:24:03.120Z,0.00
2018-12-07T05:25:03.558Z,0.00
2018-12-07T05:26:03.854Z,0.00
2018-12-07T05:27:04.189Z,0.00
2018-12-07T05:28:04.501Z,0.00
2018-12-07T05:29:04.819Z,0.00
2018-12-07T05:30:05.200Z,0.00
2018-12-07T05:31:05.550Z,0.00
2018-12-07T05:32:06.093Z,0.00
2018-12-07T05:33:06.548Z,0.00
2018-12-07T05:34:06.900Z,0.00
2018-12-07T05:35:07.307Z,0.00
2018-12-07T05:36:07.641Z,0.00
2018-12-07T05:37:08.059Z,0.00
2018-12-07T05:38:07.616Z,0.00
2018-12-07T05:39:09.209Z,0.00
2018-12-07T05:39:17.629Z,0.00
2018-12-07T05:40:19.010Z,0.00
2018-12-07T05:41:19.330Z,0.00
2018-12-07T05:42:19.990Z,0.00
2018-12-07T05:43:20.276Z,0.00
2018-12-07T05:44:20.628Z,0.00
2018-12-07T05:45:20.907Z,0.00
2018-12-07T05:46:21.204Z,0.00
2018-12-07T05:47:21.570Z,0.00
2018-12-07T05:48:23.793Z,0.00
2018-12-07T05:49:21.560Z,0.00
2018-12-07T05:50:22.856Z,0.00
2018-12-07T05:51:23.151Z,0.00
2018-12-07T05:52:23.556Z,0.00
2018-12-07T05:53:24.132Z,0.00
2018-12-07T05:54:24.551Z,0.00
2018-12-07T05:55:24.857Z,0.00
2018-12-07T05:56:25.464Z,0.00
2018-12-07T05:57:25.825Z,0.00
2018-12-07T05:58:26.248Z,0.00
2018-12-07T05:59:26.604Z,0.00
2018-12-07T06:00:27.373Z,0.00
2018-12-07T06:01:27.654Z,0.00
2018-12-07T06:02:28.065Z,0.00
2018-12-07T06:03:28.499Z,0.00
2018-12-07T06:04:28.894Z,0.00
2018-12-07T06:05:29.298Z,0.00
2018-12-07T06:06:29.642Z,0.00
2018-12-07T06:07:29.939Z,0.00
2018-12-07T06:08:30.442Z,0.00
2018-12-07T06:09:30.764Z,0.00
2018-12-07T06:10:31.585Z,0.00
2018-12-07T06:11:32.369Z,0.00
2018-12-07T06:12:32.844Z,0.00
2018-12-07T06:13:33.308Z,0.00
2018-12-07T06:14:34.835Z,0.00
2018-12-07T06:15:33.886Z,0.00
2018-12-07T06:16:34.196Z,0.05
2018-12-07T06:17:34.849Z,0.05
2018-12-07T06:18:35.199Z,0.05
2018-12-07T06:19:35.557Z,0.05
2018-12-07T06:20:36.273Z,0.05
2018-12-07T06:21:36.603Z,0.05
2018-12-07T06:22:37.063Z,0.05
2018-12-07T06:23:38.614Z,0.05
2018-12-07T06:24:38.525Z,0.05
2018-12-07T06:24:46.908Z,0.05
2018-12-07T06:25:48.299Z,0.05
2018-12-07T06:26:47.941Z,0.05
2018-12-07T06:27:49.474Z,0.05
2018-12-07T06:28:50.033Z,0.05
2018-12-07T06:29:50.314Z,0.09
2018-12-07T06:30:50.672Z,0.09
2018-12-07T06:31:50.982Z,0.14
2018-12-07T06:32:51.509Z,0.18
2018-12-07T06:33:51.886Z,0.18
2018-12-07T06:34:52.244Z,0.27
2018-12-07T06:35:52.494Z,0.27
2018-12-07T06:36:53.045Z,0.36
2018-12-07T06:37:53.359Z,0.41
2018-12-07T06:38:53.738Z,0.54
2018-12-07T06:39:54.211Z,0.54
2018-12-07T06:40:54.625Z,0.54
2018-12-07T06:41:55.054Z,0.76
2018-12-07T06:42:55.510Z,0.81
2018-12-07T06:43:55.963Z,1.08
2018-12-07T06:44:56.342Z,1.26
2018-12-07T06:45:56.796Z,1.53
2018-12-07T06:46:57.488Z,1.66
2018-12-07T06:47:57.947Z,2.12
2018-12-07T06:48:58.280Z,2.16
2018-12-07T06:49:59.007Z,2.34
2018-12-07T06:50:59.295Z,3.24
2018-12-07T06:51:59.633Z,3.96
2018-12-07T06:52:59.919Z,4.59
2018-12-07T06:54:00.244Z,5.85
2018-12-07T06:55:00.625Z,6.48
2018-12-07T06:56:00.843Z,7.43
2018-12-07T06:57:01.115Z,8.28
2018-12-07T06:58:01.324Z,10.03
2018-12-07T06:59:01.711Z,11.97
2018-12-07T07:00:02.201Z,14.13
2018-12-07T07:01:02.399Z,17.55
2018-12-07T07:02:02.738Z,20.16
2018-12-07T07:03:02.975Z,19.71
2018-12-07T07:04:03.297Z,19.98
2018-12-07T07:05:03.612Z,20.16
2018-12-07T07:06:03.991Z,23.94
2018-12-07T07:07:05.373Z,28.98
2018-12-07T07:08:03.868Z,28.26
2018-12-07T07:09:05.274Z,29.70
2018-12-07T07:10:05.575Z,32.94
2018-12-07T07:10:13.963Z,33.84
2018-12-07T07:11:15.338Z,33.66
2018-12-07T07:12:15.707Z,38.88
2018-12-07T07:13:16.314Z,45.72
2018-12-07T07:14:16.654Z,43.56
2018-12-07T07:15:16.976Z,49.68
2018-12-07T07:16:22.935Z,52.56
2018-12-07T07:17:17.290Z,59.76
2018-12-07T07:18:18.625Z,78.12
2018-12-07T07:19:18.827Z,72.72
2018-12-07T07:20:19.160Z,62.64
2018-12-07T07:21:19.420Z,64.08
2018-12-07T07:22:19.700Z,70.56
2018-12-07T07:23:20.361Z,75.60
2018-12-07T07:24:20.767Z,89.64
2018-12-07T07:25:21.144Z,89.64
2018-12-07T07:26:21.429Z,87.84
2018-12-07T07:27:21.630Z,101.52
2018-12-07T07:28:21.672Z,107.28
2018-12-07T07:29:22.370Z,128.16
2018-12-07T07:30:22.749Z,128.88
2018-12-07T07:31:23.140Z,137.52
2018-12-07T07:32:23.541Z,184.32
2018-12-07T07:33:23.956Z,167.76
2018-12-07T07:34:24.449Z,190.08
2018-12-07T07:35:24.838Z,203.04
2018-12-07T07:36:25.147Z,187.20
2018-12-07T07:37:25.336Z,214.56
2018-12-07T07:38:26.062Z,241.92
2018-12-07T07:39:26.427Z,286.56
2018-12-07T07:40:26.684Z,276.48
2018-12-07T07:41:28.025Z,256.32
2018-12-07T07:42:27.517Z,241.92
2018-12-07T07:43:26.672Z,263.52
2018-12-07T07:44:28.183Z,239.04
2018-12-07T07:45:28.573Z,227.52
2018-12-07T07:46:28.854Z,231.84
2018-12-07T07:47:29.171Z,249.12
2018-12-07T07:48:29.587Z,259.20
2018-12-07T07:49:30.215Z,249.12
2018-12-07T07:50:30.514Z,234.72
2018-12-07T07:51:30.817Z,249.12
2018-12-07T07:52:31.272Z,263.52
2018-12-07T07:53:31.602Z,237.60
2018-12-07T07:54:31.970Z,253.44
2018-12-07T07:55:32.269Z,290.88
2018-12-07T07:56:32.593Z,292.32
2018-12-07T07:56:40.630Z,296.64
2018-12-07T07:57:41.885Z,319.68
2018-12-07T07:58:42.251Z,324.00
2018-12-07T07:59:42.678Z,331.20
2018-12-07T08:00:42.944Z,348.48
2018-12-07T08:01:43.224Z,339.84
2018-12-07T08:02:43.639Z,364.32
2018-12-07T08:03:43.954Z,380.16
2018-12-07T08:04:44.235Z,383.04
2018-12-07T08:05:44.598Z,360.00
2018-12-07T08:06:44.966Z,383.04
2018-12-07T08:07:45.731Z,423.36
2018-12-07T08:08:46.094Z,457.92
2018-12-07T08:09:46.449Z,406.08
2018-12-07T08:10:48.055Z,420.48
2018-12-07T08:11:47.523Z,417.60
2018-12-07T08:12:47.824Z,411.84
2018-12-07T08:13:48.180Z,397.44
2018-12-07T08:14:48.515Z,397.44
2018-12-07T08:15:49.064Z,397.44
2018-12-07T08:16:49.307Z,483.84
2018-12-07T08:17:49.640Z,506.88
2018-12-07T08:18:49.994Z,509.76
2018-12-07T08:19:50.643Z,529.92
2018-12-07T08:20:50.908Z,547.20
2018-12-07T08:21:51.260Z,518.40
2018-12-07T08:22:51.576Z,567.36
2018-12-07T08:23:51.854Z,604.80
2018-12-07T08:24:52.400Z,668.16
2018-12-07T08:25:52.782Z,668.16
2018-12-07T08:26:53.189Z,639.36
2018-12-07T08:27:53.767Z,622.08
2018-12-07T08:28:54.701Z,607.68
2018-12-07T08:29:54.997Z,613.44
2018-12-07T08:30:55.311Z,616.32
2018-12-07T08:31:55.701Z,624.96
2018-12-07T08:32:56.005Z,691.20
2018-12-07T08:33:56.528Z,581.76
2018-12-07T08:34:56.794Z,679.68
2018-12-07T08:35:57.504Z,694.08
2018-12-07T08:36:57.869Z,673.92
2018-12-07T08:37:58.255Z,671.04
2018-12-07T08:38:58.597Z,639.36
2018-12-07T08:39:58.876Z,573.12
2018-12-07T08:40:59.135Z,581.76
2018-12-07T08:42:06.539Z,622.08
2018-12-07T08:42:07.765Z,624.96
2018-12-07T08:43:09.346Z,691.20
2018-12-07T08:44:09.736Z,720.00
2018-12-07T08:45:10.059Z,714.24
2018-12-07T08:46:10.425Z,748.80
2018-12-07T08:47:10.722Z,887.04
2018-12-07T08:48:11.059Z,961.92
2018-12-07T08:49:11.580Z,864.00
2018-12-07T08:50:10.819Z,1077.12
2018-12-07T08:51:12.180Z,1077.12
2018-12-07T08:52:12.727Z,1065.60
2018-12-07T08:53:13.381Z,1353.60
2018-12-07T08:54:13.742Z,1313.28
2018-12-07T08:55:14.218Z,1393.92
2018-12-07T08:56:14.636Z,1353.60
2018-12-07T08:57:14.927Z,1261.44
2018-12-07T08:58:15.194Z,1146.24
2018-12-07T08:59:15.552Z,1244.16
2018-12-07T09:00:16.009Z,1175.04
2018-12-07T09:01:16.573Z,1157.76
2018-12-07T09:02:17.128Z,1313.28
2018-12-07T09:03:17.514Z,1186.56
2018-12-07T09:04:18.076Z,1059.84
2018-12-07T09:05:17.628Z,1019.52
2018-12-07T09:06:18.972Z,1013.76
2018-12-07T09:07:19.477Z,938.88
2018-12-07T09:08:19.808Z,967.68
2018-12-07T09:09:20.166Z,1025.28
2018-12-07T09:10:20.594Z,1042.56
2018-12-07T09:11:20.887Z,1203.84
2018-12-07T09:12:21.284Z,1175.04
2018-12-07T09:13:21.591Z,1002.24
2018-12-07T09:14:22.007Z,996.48
2018-12-07T09:15:22.370Z,944.64
2018-12-07T09:16:21.703Z,1042.56
2018-12-07T09:17:23.103Z,973.44
2018-12-07T09:18:23.673Z,898.56
2018-12-07T09:19:22.980Z,956.16
2018-12-07T09:20:26.545Z,921.60
2018-12-07T09:21:24.236Z,1180.80
2018-12-07T09:22:25.656Z,1105.92
2018-12-07T09:23:26.505Z,1077.12
2018-12-07T09:24:27.045Z,1203.84
2018-12-07T09:25:27.492Z,1094.40
2018-12-07T09:26:27.887Z,1146.24
2018-12-07T09:27:28.233Z,1140.48
2018-12-07T09:28:28.940Z,1025.28
2018-12-07T09:29:29.292Z,1111.68
2018-12-07T09:29:37.702Z,1134.72
2018-12-07T09:30:38.492Z,1186.56
2018-12-07T09:31:38.910Z,1180.80
2018-12-07T09:32:39.759Z,1313.28
2018-12-07T09:33:40.083Z,1186.56
2018-12-07T09:34:40.389Z,1186.56
2018-12-07T09:35:40.836Z,1307.52
2018-12-07T09:36:42.392Z,1434.24
2018-12-07T09:37:41.871Z,1359.36
2018-12-07T09:38:42.348Z,1301.76
2018-12-07T09:39:42.908Z,1543.68
2018-12-07T09:40:43.122Z,1393.92
2018-12-07T09:41:43.389Z,1566.72
2018-12-07T09:42:43.911Z,1843.20
2018-12-07T09:43:44.285Z,1728.00
2018-12-07T09:44:44.498Z,1589.76
2018-12-07T09:45:44.788Z,1463.04
2018-12-07T09:46:45.273Z,1393.92
2018-12-07T09:47:45.592Z,1820.16
2018-12-07T09:48:46.003Z,1716.48
2018-12-07T09:49:46.744Z,1555.20
2018-12-07T09:50:47.096Z,1307.52
2018-12-07T09:51:47.419Z,1388.16
2018-12-07T09:52:47.908Z,1319.04
2018-12-07T09:53:48.192Z,1405.44
2018-12-07T09:54:48.395Z,1319.04
2018-12-07T09:55:48.775Z,1284.48
2018-12-07T09:56:49.271Z,1163.52
2018-12-07T09:57:49.486Z,1152.00
2018-12-07T09:58:49.809Z,1071.36
2018-12-07T09:59:50.597Z,1209.60
2018-12-07T10:00:51.026Z,1140.48
2018-12-07T10:01:51.885Z,1238.40
2018-12-07T10:02:52.399Z,1152.00
2018-12-07T10:03:52.869Z,1405.44
2018-12-07T10:04:53.271Z,1313.28
2018-12-07T10:05:53.618Z,1457.28
2018-12-07T10:06:53.956Z,1658.88
2018-12-07T10:07:54.283Z,1532.16
2018-12-07T10:08:54.579Z,1342.08
2018-12-07T10:09:54.929Z,1509.12
2018-12-07T10:10:55.429Z,1647.36
2018-12-07T10:11:55.649Z,1704.96
2018-12-07T10:12:56.081Z,1589.76
2018-12-07T10:13:56.423Z,1474.56
2018-12-07T10:14:04.745Z,1486.08
2018-12-07T10:15:06.029Z,1428.48
2018-12-07T10:16:06.470Z,1319.04
2018-12-07T10:17:06.826Z,1751.04
2018-12-07T10:18:07.275Z,1543.68
2018-12-07T10:19:07.872Z,1370.88
2018-12-07T10:20:08.375Z,1359.36
2018-12-07T10:21:08.976Z,1221.12
2018-12-07T10:22:09.894Z,1186.56
2018-12-07T10:23:10.179Z,1313.28
2018-12-07T10:24:10.965Z,1353.60
2018-12-07T10:25:11.135Z,1249.92
2018-12-07T10:26:11.529Z,1319.04
2018-12-07T10:27:11.927Z,1284.48
2018-12-07T10:28:12.397Z,1347.84
2018-12-07T10:29:12.754Z,1296.00
2018-12-07T10:30:12.973Z,1428.48
2018-12-07T10:31:13.652Z,1411.20
2018-12-07T10:32:14.036Z,1307.52
2018-12-07T10:33:14.233Z,1278.72
2018-12-07T10:34:14.543Z,1359.36
2018-12-07T10:35:14.774Z,1388.16
2018-12-07T10:36:15.334Z,1249.92
2018-12-07T10:37:15.789Z,1313.28
2018-12-07T10:38:16.136Z,1365.12
2018-12-07T10:39:16.388Z,1272.96
2018-12-07T10:40:16.707Z,1445.76
2018-12-07T10:41:16.966Z,1440.00
2018-12-07T10:42:17.248Z,1635.84
2018-12-07T10:43:17.615Z,1843.20
2018-12-07T10:44:18.167Z,1762.56
2018-12-07T10:45:19.483Z,1946.88
2018-12-07T10:46:18.858Z,1785.60
2018-12-07T10:47:19.091Z,2154.24
2018-12-07T10:48:19.304Z,2119.68
2018-12-07T10:49:20.335Z,2430.72
2018-12-07T10:50:20.674Z,2545.92
2018-12-07T10:51:21.004Z,2649.60
2018-12-07T10:52:21.631Z,2131.20
2018-12-07T10:53:21.924Z,2165.76
2018-12-07T10:54:22.560Z,2707.20
2018-12-07T10:55:22.885Z,2891.52
2018-12-07T10:56:23.125Z,2534.40
2018-12-07T10:57:23.378Z,2419.20
2018-12-07T10:58:23.635Z,2430.72
2018-12-07T10:58:31.997Z,2373.12
2018-12-07T10:59:33.274Z,2476.80
2018-12-07T11:00:33.566Z,2615.04
2018-12-07T11:01:33.828Z,2407.68
2018-12-07T11:02:34.453Z,2707.20
2018-12-07T11:03:34.924Z,2776.32
2018-12-07T11:04:35.199Z,2108.16
2018-12-07T11:05:35.538Z,2269.44
2018-12-07T11:06:35.945Z,1889.28
2018-12-07T11:07:36.353Z,1647.36
2018-12-07T11:08:36.915Z,1739.52
2018-12-07T11:09:37.216Z,2004.48
2018-12-07T11:10:37.725Z,1912.32
2018-12-07T11:11:38.226Z,2050.56
2018-12-07T11:12:37.778Z,1716.48
2018-12-07T11:13:39.331Z,1751.04
2018-12-07T11:14:39.868Z,1866.24
2018-12-07T11:15:40.162Z,1946.88
2018-12-07T11:16:40.729Z,1808.64
2018-12-07T11:17:41.163Z,1866.24
2018-12-07T11:18:41.622Z,2108.16
2018-12-07T11:19:42.237Z,2304.00
2018-12-07T11:20:43.115Z,1912.32
2018-12-07T11:21:43.571Z,2004.48
2018-12-07T11:22:44.450Z,1751.04
2018-12-07T11:23:45.020Z,1900.80
2018-12-07T11:24:45.248Z,1704.96
2018-12-07T11:25:45.482Z,1658.88
2018-12-07T11:26:45.985Z,1716.48
2018-12-07T11:27:46.231Z,1589.76
2018-12-07T11:28:46.784Z,1774.08
2018-12-07T11:29:47.398Z,2085.12
2018-12-07T11:30:47.925Z,2085.12
2018-12-07T11:31:47.215Z,2108.16
2018-12-07T11:32:48.877Z,2177.28
2018-12-07T11:33:49.347Z,2522.88
2018-12-07T11:34:49.790Z,2787.84
2018-12-07T11:35:50.061Z,3363.84
2018-12-07T11:36:50.504Z,3571.20
2018-12-07T11:37:49.715Z,3456.00
2018-12-07T11:38:51.037Z,3386.88
2018-12-07T11:39:51.367Z,3479.04
2018-12-07T11:40:51.621Z,3248.64
2018-12-07T11:41:51.965Z,3571.20
2018-12-07T11:42:52.516Z,3824.64
2018-12-07T11:43:52.862Z,3939.84
2018-12-07T11:44:53.403Z,3709.44
2018-12-07T11:45:53.714Z,3594.24
2018-12-07T11:46:02.036Z,3502.08
2018-12-07T11:47:03.081Z,3294.72
2018-12-07T11:48:03.384Z,3594.24
2018-12-07T11:49:03.714Z,3363.84
2018-12-07T11:50:04.200Z,3386.88
2018-12-07T11:51:04.656Z,3755.52
2018-12-07T11:52:04.925Z,3594.24
2018-12-07T11:53:05.752Z,3479.04
2018-12-07T11:54:06.254Z,3571.20
2018-12-07T11:55:06.554Z,3801.60
2018-12-07T11:56:06.885Z,3870.72
2018-12-07T11:57:07.428Z,3202.56
2018-12-07T11:58:07.865Z,3156.48
2018-12-07T11:59:08.615Z,2545.92
2018-12-07T12:00:08.656Z,2211.84
2018-12-07T12:01:08.961Z,2661.12
2018-12-07T12:02:09.340Z,2822.40
2018-12-07T12:03:09.735Z,2753.28
2018-12-07T12:04:10.126Z,2304.00
2018-12-07T12:05:10.877Z,2545.92
2018-12-07T12:06:11.205Z,2580.48
2018-12-07T12:07:11.687Z,2972.16
2018-12-07T12:08:12.118Z,2557.44
2018-12-07T12:09:12.678Z,2488.32
2018-12-07T12:10:12.994Z,2995.20
2018-12-07T12:11:13.472Z,2903.04
2018-12-07T12:12:13.988Z,2949.12
2018-12-07T12:13:14.316Z,2626.56
2018-12-07T12:14:14.612Z,2350.08
2018-12-07T12:15:15.078Z,2246.40
2018-12-07T12:16:15.417Z,2476.80
2018-12-07T12:17:15.755Z,2338.56
2018-12-07T12:18:16.133Z,2545.92
2018-12-07T12:19:16.416Z,2626.56
2018-12-07T12:20:15.750Z,2304.00
2018-12-07T12:21:17.075Z,2419.20
2018-12-07T12:22:17.317Z,2949.12
2018-12-07T12:23:17.668Z,3594.24
2018-12-07T12:24:18.551Z,3502.08
2018-12-07T12:25:19.214Z,3824.64
2018-12-07T12:26:19.722Z,3133.44
2018-12-07T12:27:20.281Z,3479.04
2018-12-07T12:28:20.614Z,4055.04
2018-12-07T12:29:21.024Z,3479.04
2018-12-07T12:30:21.394Z,3479.04
2018-12-07T12:31:21.946Z,3985.92
2018-12-07T12:31:30.244Z,4078.08
2018-12-07T12:32:31.515Z,4746.24
2018-12-07T12:33:31.960Z,5713.92
2018-12-07T12:34:32.473Z,6128.64
2018-12-07T12:35:32.905Z,6819.84
2018-12-07T12:36:33.297Z,8663.04
2018-12-07T12:37:33.797Z,7971.84
2018-12-07T12:38:34.051Z,7096.32
2018-12-07T12:39:34.386Z,6312.96